Chugwater, WY (82210)

7:44 PM MDT on September 17, 2014 (GMT -0600)
Torrington Municipal | Change Station
CLOSE
Current Station
Airport
Location: Torrington,
Elevation: 4206 ft
Nearby Weather Stations

Elev 4206 ft 42.06 °N, 104.15 °W | Updated 51 minutes ago

Partly Cloudy
Partly Cloudy
77 °F
Feels Like 77 °F
N
5
Wind Variable Wind from SSE

Today
High -- | Low -- °F
--% Chance of Precip.
Yesterday
High -- | Low -- °F
Precip. -- in
6:41 AM 7:04 PM
Waning Crescent, 31% visible
Pressure 29.83 in
Visibility 10.0 miles
Clouds Clear
Dew Point 46 °F
Humidity 33%
Rainfall 0.00 in
Snow Depth 0 in , 0 in , 2 in
UV 0 out of 12
Pollen 7.00 out of 12
Air Quality Not available.
Flu Activity Not available.
METAR KTOR 180053Z AUTO 15004KT 10SM CLR 25/08 A2993 RMK AO2 SLP099 T02500078

More Conditions Fewer Conditions

Pressure 29.83 in
Visibility 10.0 miles
Clouds Clear
Dew Point 46 °F
Humidity 33%
Rainfall 0.00 in
Snow Depth 0 in , 0 in , 2 in
UV 0 out of 12
Pollen 7.00 out of 12
Air Quality Not available.
Flu Activity Not available.
METAR KTOR 180053Z AUTO 15004KT 10SM CLR 25/08 A2993 RMK AO2 SLP099 T02500078

More Conditions Fewer Conditions

10-Day Weather Forecast

Almanac

Astronomy

Sep. 17, 2014 Rise Set
Actual Time 6:41 AM MDT 7:04 PM MDT
Civil Twilight 6:13 AM MDT 7:32 PM MDT
Nautical Twilight 5:40 AM MDT 8:05 PM MDT
Astronomical Twilight 5:07 AM MDT 8:38 PM MDT
Moon 12:39 AM MDT (9/17) 3:19 PM MDT (9/17)
Length of Visible Light 13h 19m
Length of Day
12h 23m
Tomorrow will be 2m 45s shorter.
Waning Crescent, 31% of the Moon is Illuminated
Today
Waning Crescent
Sep 24
New
Oct 1
First Quarter
Oct 8
Full
Oct 15
Last Quarter

Today's Extremes

State Highs State Lows

Community

WunderPhotos

Upload Photos

1,754,261 photos uploaded!

Nearby

Snow Depth

Station Depth Elevation
North French Creek 0 in 10130 ft
Crow Creek 0 in 8330 ft
Willow Creek 2 in 8450 ft
Hams Fork 0 in 7840 ft
Kelley R.S. 0 in 8180 ft

Earthquake Activity

City Distance Mag. Time & Date
No recent earthquake activity has been reported nearby.
Minimum magnitude displayed is 2.5.

Coastal Water Temperatures

Place Temperature
No Stations Reporting

Nearby Weather Stations